createdAt,value
2024-03-02T00:01:28.902Z,92989.06
2024-03-02T00:03:57.071Z,92981.13
2024-03-02T00:06:25.263Z,92975.09
2024-03-02T00:08:59.314Z,92984.41
2024-03-02T00:11:28.980Z,92983.66
2024-03-02T00:13:57.168Z,92971.47
2024-03-02T00:16:25.806Z,92963.19
2024-03-02T00:18:53.858Z,92963.59
2024-03-02T00:21:23.971Z,92965.03
2024-03-02T00:23:53.503Z,92965.66
2024-03-02T00:26:21.554Z,92966.06
2024-03-02T00:28:51.725Z,92968.56
2024-03-02T00:31:21.578Z,92962.56
2024-03-02T00:33:50.413Z,92961.44
2024-03-02T00:36:26.075Z,92966.91
2024-03-02T00:38:56.075Z,92953.72
2024-03-02T00:41:25.890Z,92957.97
2024-03-02T00:44:01.139Z,92958.78
2024-03-02T00:46:31.617Z,92955.03
2024-03-02T00:49:01.726Z,92954.69
2024-03-02T00:51:31.893Z,92949.31
2024-03-02T00:54:02.701Z,92943.19
2024-03-02T00:56:31.951Z,92938.16
2024-03-02T00:58:59.812Z,92935.97
2024-03-02T01:01:27.832Z,92932.19
2024-03-02T01:03:56.415Z,92929.94
2024-03-02T01:06:24.501Z,92927.47
2024-03-02T01:08:53.678Z,92922.47
2024-03-02T01:11:25.115Z,92923.94
2024-03-02T01:13:53.801Z,92928.09
2024-03-02T01:16:22.234Z,92924.09
2024-03-02T01:18:50.665Z,92917.59
2024-03-02T01:21:19.397Z,92910.44
2024-03-02T01:23:47.740Z,92911.28
2024-03-02T01:26:15.822Z,92915.50
2024-03-02T01:28:43.906Z,92912.13
2024-03-02T01:31:12.418Z,92915.28
2024-03-02T01:33:40.496Z,92910.38
2024-03-02T01:36:09.986Z,92906.13
2024-03-02T01:38:38.297Z,92904.44
2024-03-02T01:41:06.460Z,92894.56
2024-03-02T01:43:34.614Z,92897.72
2024-03-02T01:46:02.835Z,92894.66
2024-03-02T01:48:30.929Z,92906.63
2024-03-02T01:50:58.939Z,92904.13
2024-03-02T01:53:27.107Z,92901.47
2024-03-02T01:55:55.163Z,92900.97
2024-03-02T01:58:23.318Z,92898.72
2024-03-02T02:00:51.911Z,92903.00
2024-03-02T02:03:20.130Z,92901.13
2024-03-02T02:05:49.380Z,92894.72
2024-03-02T02:08:20.062Z,92911.84
2024-03-02T02:10:48.031Z,92905.28
2024-03-02T02:13:16.201Z,92901.22
2024-03-02T02:15:44.250Z,92896.97
2024-03-02T02:18:12.487Z,92895.88
2024-03-02T02:20:40.480Z,92894.69
2024-03-02T02:23:11.347Z,92895.13
2024-03-02T02:25:40.168Z,92902.16
2024-03-02T02:28:08.177Z,92896.09
2024-03-02T02:30:36.212Z,92896.72
2024-03-02T02:33:04.929Z,92896.97
2024-03-02T02:35:33.592Z,92895.34
2024-03-02T02:38:02.150Z,92894.56
2024-03-02T02:40:33.053Z,92896.06
2024-03-02T02:43:01.240Z,92898.16
2024-03-02T02:45:29.154Z,92893.81
2024-03-02T02:47:57.196Z,92896.66
2024-03-02T02:50:25.163Z,92899.31
2024-03-02T02:52:53.241Z,92898.31
2024-03-02T02:55:21.308Z,92897.84
2024-03-02T03:00:48.211Z,92888.75
2024-03-02T03:03:16.553Z,92895.31
2024-03-02T03:05:44.650Z,92896.47
2024-03-02T03:08:12.703Z,92882.72
2024-03-02T03:10:41.436Z,92891.50
2024-03-02T03:13:10.274Z,92885.91
2024-03-02T03:15:39.122Z,92888.34
2024-03-02T03:18:08.950Z,92887.34
2024-03-02T03:20:37.120Z,92892.69
2024-03-02T03:23:08.732Z,92896.47
2024-03-02T03:25:37.030Z,92900.66
2024-03-02T03:28:05.396Z,92895.13
2024-03-02T03:30:33.454Z,92893.81
2024-03-02T03:33:01.461Z,92903.16
2024-03-02T03:35:29.447Z,92904.97
2024-03-02T03:37:57.499Z,92893.38
2024-03-02T03:40:25.707Z,92893.88
2024-03-02T03:42:54.610Z,92900.22
2024-03-02T03:45:22.704Z,92896.97
2024-03-02T03:47:50.799Z,92891.47
2024-03-02T03:50:18.820Z,92898.88
2024-03-02T03:52:46.778Z,92893.06
2024-03-02T03:55:15.088Z,92900.97
2024-03-02T03:57:43.028Z,92895.47
2024-03-02T04:00:11.708Z,92887.22
2024-03-02T04:02:42.981Z,92888.31
2024-03-02T04:05:12.777Z,92899.00
2024-03-02T04:07:44.573Z,92897.94
2024-03-02T04:10:14.081Z,92899.31
2024-03-02T04:12:42.390Z,92898.25
2024-03-02T04:15:10.603Z,92892.13
2024-03-02T04:17:38.667Z,92898.25
2024-03-02T04:20:08.081Z,92901.44
2024-03-02T04:22:37.206Z,92903.56
2024-03-02T04:25:08.773Z,92899.03
2024-03-02T04:27:37.473Z,92899.81
2024-03-02T04:30:06.963Z,92905.00
2024-03-02T04:32:37.774Z,92902.03
2024-03-02T04:35:09.428Z,92909.59
2024-03-02T04:37:37.493Z,92906.03
2024-03-02T04:40:09.662Z,92907.44
2024-03-02T04:42:38.523Z,92910.63
2024-03-02T04:45:06.863Z,92909.91
2024-03-02T04:47:34.858Z,92912.06
2024-03-02T04:50:03.133Z,92911.00
2024-03-02T04:52:31.417Z,92910.22
2024-03-02T04:55:18.579Z,92910.00
2024-03-02T04:57:47.637Z,92909.28
2024-03-02T05:00:15.813Z,92916.41
2024-03-02T05:02:43.856Z,92912.19
2024-03-02T05:05:11.825Z,92910.59
2024-03-02T05:07:39.791Z,92908.50
2024-03-02T05:10:08.419Z,92911.53
2024-03-02T05:12:58.925Z,92918.03
2024-03-02T05:15:27.306Z,92919.91
2024-03-02T05:17:55.601Z,92915.91
2024-03-02T05:20:23.638Z,92919.44
2024-03-02T05:22:51.698Z,92925.84
2024-03-02T05:25:19.829Z,92926.56
2024-03-02T05:27:47.876Z,92928.19
2024-03-02T05:30:16.232Z,92924.91
2024-03-02T05:32:44.149Z,92936.38
2024-03-02T05:35:14.240Z,92931.69
2024-03-02T05:37:42.536Z,92936.22
2024-03-02T05:40:12.489Z,92947.94
2024-03-02T05:42:42.513Z,92953.78
2024-03-02T05:45:11.163Z,92946.13
2024-03-02T05:47:39.713Z,92949.28
2024-03-02T05:50:08.592Z,92950.78
2024-03-02T05:52:36.693Z,92946.59
2024-03-02T05:55:05.240Z,92961.44
2024-03-02T05:57:47.136Z,92957.47
2024-03-02T06:00:18.675Z,92959.09
2024-03-02T06:02:47.129Z,92955.38
2024-03-02T06:05:16.587Z,92959.09
2024-03-02T06:07:45.058Z,92959.91
2024-03-02T06:10:14.414Z,92957.25
2024-03-02T06:12:43.067Z,92961.19
2024-03-02T06:15:12.456Z,92953.44
2024-03-02T06:17:40.661Z,92960.63
2024-03-02T06:20:09.982Z,92959.66
2024-03-02T06:22:38.624Z,92957.00
2024-03-02T06:25:07.210Z,92955.00
2024-03-02T06:27:35.537Z,92969.34
2024-03-02T06:30:05.586Z,92962.72
2024-03-02T06:32:34.213Z,92975.25
2024-03-02T06:35:02.667Z,92966.19
2024-03-02T06:37:30.726Z,92971.00
2024-03-02T06:39:59.060Z,92977.91
2024-03-02T06:42:27.681Z,92976.78
2024-03-02T06:44:55.950Z,92971.50
2024-03-02T06:47:24.070Z,92975.22
2024-03-02T06:49:52.887Z,92973.25
2024-03-02T06:52:24.913Z,92971.63
2024-03-02T06:54:53.675Z,92974.00
2024-03-02T06:57:22.357Z,92976.47
2024-03-02T06:59:52.891Z,92976.78
2024-03-02T07:02:21.490Z,92975.50
2024-03-02T07:04:50.397Z,92972.03
2024-03-02T07:07:18.904Z,92971.56
2024-03-02T07:09:47.458Z,92968.09
2024-03-02T07:12:16.215Z,92968.84
2024-03-02T07:15:03.132Z,92971.06
2024-03-02T07:17:33.737Z,92976.97
2024-03-02T07:20:02.288Z,92981.06
2024-03-02T07:22:34.177Z,92978.47
2024-03-02T07:25:02.557Z,92977.09
2024-03-02T07:27:32.927Z,92986.13
2024-03-02T07:30:01.184Z,92985.88
2024-03-02T07:32:29.562Z,92984.88
2024-03-02T07:34:57.953Z,92984.63
2024-03-02T07:37:26.589Z,92986.06
2024-03-02T07:39:55.113Z,92980.56
2024-03-02T07:42:23.718Z,92992.72
2024-03-02T07:44:52.403Z,92995.00
2024-03-02T07:47:22.949Z,92988.16
2024-03-02T07:49:51.467Z,92994.31
2024-03-02T07:52:19.828Z,92990.81
2024-03-02T07:54:48.373Z,93008.47
2024-03-02T07:57:16.827Z,92998.16
2024-03-02T07:59:45.100Z,93002.94
2024-03-02T08:02:14.144Z,93011.25
2024-03-02T08:04:42.202Z,93002.53
2024-03-02T08:07:10.989Z,93012.66
2024-03-02T08:09:39.266Z,93008.72
2024-03-02T08:12:07.743Z,93000.44
2024-03-02T08:14:35.961Z,93008.78
2024-03-02T08:17:04.243Z,93011.63
2024-03-02T08:19:32.328Z,93011.19
2024-03-02T08:22:01.157Z,93011.63
2024-03-02T08:24:29.047Z,93007.66
2024-03-02T08:26:56.812Z,93009.75
2024-03-02T08:29:25.365Z,93016.50
2024-03-02T08:31:53.493Z,93015.66
2024-03-02T08:34:22.035Z,93007.28
2024-03-02T08:36:50.699Z,93014.03
2024-03-02T08:39:21.101Z,93019.09
2024-03-02T08:41:50.272Z,93011.38
2024-03-02T08:44:19.345Z,93013.88
2024-03-02T08:46:47.834Z,93013.06
2024-03-02T08:49:16.473Z,93016.59
2024-03-02T08:51:45.089Z,93027.28
2024-03-02T08:54:13.798Z,93018.25
2024-03-02T08:56:42.152Z,93014.84
2024-03-02T08:59:10.832Z,93009.41
2024-03-02T09:01:43.327Z,93015.22
2024-03-02T09:04:11.887Z,93015.22
2024-03-02T09:06:40.424Z,93020.44
2024-03-02T09:09:09.078Z,93017.22
2024-03-02T09:11:37.702Z,93020.38
2024-03-02T09:14:06.686Z,93019.22
2024-03-02T09:16:35.243Z,93023.94
2024-03-02T09:19:03.604Z,93018.53
2024-03-02T09:21:32.121Z,93020.78
2024-03-02T09:24:00.837Z,93021.53
2024-03-02T09:26:29.297Z,93019.22
2024-03-02T09:28:58.014Z,93025.50
2024-03-02T09:31:26.718Z,93024.63
2024-03-02T09:33:55.021Z,93019.31
2024-03-02T09:36:24.862Z,93027.03
2024-03-02T09:38:52.984Z,93021.03
2024-03-02T09:41:21.913Z,93018.63
2024-03-02T09:43:50.841Z,93029.59
2024-03-02T09:46:19.535Z,93012.84
2024-03-02T09:48:48.068Z,93028.34
2024-03-02T09:51:20.826Z,93031.75
2024-03-02T09:53:50.324Z,93028.91
2024-03-02T09:56:19.824Z,93025.81
2024-03-02T09:58:48.706Z,93028.66
2024-03-02T10:01:17.542Z,93029.31
2024-03-02T10:03:51.686Z,93029.19
2024-03-02T10:06:30.329Z,93027.19
2024-03-02T10:08:58.822Z,93028.59
2024-03-02T10:11:27.395Z,93026.03
2024-03-02T10:14:12.811Z,93025.44
2024-03-02T10:16:42.894Z,93021.88
2024-03-02T10:19:24.836Z,93017.38
2024-03-02T10:22:01.259Z,93016.94
2024-03-02T10:24:42.544Z,93009.81
2024-03-02T10:27:17.995Z,93013.34
2024-03-02T10:29:49.581Z,93018.31
2024-03-02T10:32:18.594Z,93008.44
2024-03-02T10:34:48.931Z,93021.47
2024-03-02T10:37:19.018Z,93015.22
2024-03-02T10:39:49.159Z,93013.19
2024-03-02T10:42:17.842Z,93017.63
2024-03-02T10:44:47.339Z,93017.44
2024-03-02T10:47:16.880Z,93016.22
2024-03-02T10:49:48.328Z,93010.44
2024-03-02T10:52:16.852Z,93017.75
2024-03-02T10:54:45.326Z,93006.31
2024-03-02T10:57:18.443Z,93004.91
2024-03-02T10:59:54.239Z,93004.69
2024-03-02T11:02:24.333Z,93001.19
2024-03-02T11:04:57.570Z,93000.69
2024-03-02T11:07:28.436Z,92998.97
2024-03-02T11:10:02.541Z,92992.94
2024-03-02T11:12:38.355Z,92997.50
2024-03-02T11:15:12.396Z,92997.25
2024-03-02T11:17:42.410Z,92996.25
2024-03-02T11:20:11.728Z,92997.81
2024-03-02T11:22:40.532Z,92995.16
2024-03-02T11:25:28.407Z,92989.06
2024-03-02T11:27:56.693Z,92997.53
2024-03-02T11:30:48.249Z,93000.50
2024-03-02T11:33:25.760Z,92999.06
2024-03-02T11:35:54.148Z,92994.59
2024-03-02T11:38:22.343Z,92991.19
2024-03-02T11:40:51.151Z,92985.34
2024-03-02T11:43:19.143Z,92989.59
2024-03-02T11:45:47.612Z,92986.69
2024-03-02T11:48:17.275Z,92986.78
2024-03-02T11:50:51.303Z,92983.03
2024-03-02T11:53:21.724Z,92984.41
2024-03-02T11:55:51.840Z,92988.34
2024-03-02T11:58:22.331Z,92985.66
2024-03-02T12:00:58.196Z,92983.47
2024-03-02T12:03:27.932Z,92990.44
2024-03-02T12:05:57.107Z,92994.19
2024-03-02T12:08:26.395Z,92987.00
2024-03-02T12:11:03.601Z,92987.00
2024-03-02T12:13:33.232Z,92989.19
2024-03-02T12:16:01.751Z,92992.09
2024-03-02T12:18:30.194Z,92995.03
2024-03-02T12:20:59.995Z,92995.59
2024-03-02T12:23:28.889Z,92993.19
2024-03-02T12:25:57.986Z,92993.19
2024-03-02T12:28:26.825Z,92994.28
2024-03-02T12:30:55.489Z,92991.59
2024-03-02T12:33:24.948Z,92986.78
2024-03-02T12:35:53.327Z,92989.44
2024-03-02T12:38:22.230Z,92987.25
2024-03-02T12:40:51.241Z,92989.38
2024-03-02T12:43:19.661Z,92992.88
2024-03-02T12:45:48.576Z,92997.34
2024-03-02T12:48:16.877Z,92996.56
2024-03-02T12:50:45.805Z,92991.78
2024-03-02T12:53:17.959Z,92996.06
2024-03-02T12:55:46.550Z,93003.75
2024-03-02T12:58:20.016Z,93004.78
2024-03-02T13:00:49.009Z,93006.34
2024-03-02T13:03:21.315Z,93003.13
2024-03-02T13:05:54.538Z,93005.56
2024-03-02T13:08:23.233Z,93001.34
2024-03-02T13:10:51.668Z,93001.63
2024-03-02T13:13:19.922Z,93007.50
2024-03-02T13:15:48.360Z,93002.72
2024-03-02T13:18:19.214Z,93003.78
2024-03-02T13:20:47.585Z,93003.75
2024-03-02T13:23:15.935Z,93006.72
2024-03-02T13:25:44.834Z,93007.81
2024-03-02T13:28:13.455Z,93006.63
2024-03-02T13:30:42.249Z,92997.88
2024-03-02T13:33:10.989Z,93011.97
2024-03-02T13:35:39.348Z,93007.19
2024-03-02T13:38:07.979Z,93008.84
2024-03-02T13:40:37.264Z,93002.53
2024-03-02T13:43:06.309Z,93010.03
2024-03-02T13:45:35.194Z,93009.78
2024-03-02T13:48:05.092Z,93009.59
2024-03-02T13:50:34.062Z,93020.53
2024-03-02T13:53:02.666Z,93019.94
2024-03-02T13:55:31.321Z,93025.88
2024-03-02T13:57:59.999Z,93018.41
2024-03-02T14:00:28.290Z,93016.31
2024-03-02T14:02:57.033Z,93018.69
2024-03-02T14:05:25.160Z,93019.47
2024-03-02T14:07:53.593Z,93023.22
2024-03-02T14:10:24.405Z,93016.84
2024-03-02T14:12:52.932Z,93026.16
2024-03-02T14:15:21.979Z,93024.06
2024-03-02T14:17:50.734Z,93025.34
2024-03-02T14:20:23.779Z,93031.75
2024-03-02T14:22:52.539Z,93021.09
2024-03-02T14:25:21.001Z,93026.38
2024-03-02T14:28:07.962Z,93022.91
2024-03-02T14:30:38.793Z,93018.56
2024-03-02T14:33:07.411Z,93029.50
2024-03-02T14:35:36.002Z,93043.53
2024-03-02T14:38:08.292Z,93039.03
2024-03-02T14:40:36.916Z,93036.09
2024-03-02T14:43:05.581Z,93037.38
2024-03-02T14:45:34.038Z,93044.59
2024-03-02T14:48:03.019Z,93046.09
2024-03-02T14:50:31.976Z,93043.50
2024-03-02T14:53:00.858Z,93037.94
2024-03-02T14:55:29.457Z,93048.53
2024-03-02T14:57:57.869Z,93048.28
2024-03-02T15:00:26.677Z,93054.69
2024-03-02T15:02:55.280Z,93040.31
2024-03-02T15:05:23.844Z,93043.28
2024-03-02T15:07:52.454Z,93037.72
2024-03-02T15:10:20.944Z,93043.03
2024-03-02T15:12:49.506Z,93041.16
2024-03-02T15:15:18.543Z,93048.59
2024-03-02T15:17:46.960Z,93049.94
2024-03-02T15:20:15.188Z,93056.28
2024-03-02T15:22:43.632Z,93059.78
2024-03-02T15:25:12.017Z,93058.94
2024-03-02T15:27:41.427Z,93057.34
2024-03-02T15:30:09.945Z,93056.84
2024-03-02T15:32:40.010Z,93053.09
2024-03-02T15:35:08.992Z,93054.94
2024-03-02T15:37:37.368Z,93065.59
2024-03-02T15:40:10.215Z,93059.19
2024-03-02T15:42:38.545Z,93061.28
2024-03-02T15:45:08.847Z,93069.03
2024-03-02T15:47:37.791Z,93070.09
2024-03-02T15:50:06.288Z,93077.25
2024-03-02T15:52:34.904Z,93077.78
2024-03-02T15:55:05.555Z,93072.69
2024-03-02T15:57:35.086Z,93075.59
2024-03-02T16:00:06.477Z,93081.97
2024-03-02T16:02:39.948Z,93075.03
2024-03-02T16:05:09.155Z,93077.69
2024-03-02T16:07:37.280Z,93086.47
2024-03-02T16:10:09.169Z,93088.84
2024-03-02T16:12:38.289Z,93081.63
2024-03-02T16:15:07.108Z,93084.28
2024-03-02T16:17:35.540Z,93084.00
2024-03-02T16:20:07.653Z,93082.09
2024-03-02T16:22:36.137Z,93081.78
2024-03-02T16:25:06.222Z,93082.84
2024-03-02T16:27:34.645Z,93081.22
2024-03-02T16:30:03.802Z,93082.25
2024-03-02T16:32:32.689Z,93092.03
2024-03-02T16:35:01.674Z,93094.13
2024-03-02T16:37:30.509Z,93088.28
2024-03-02T16:39:59.077Z,93091.97
2024-03-02T16:42:27.630Z,93094.84
2024-03-02T16:44:58.534Z,93092.97
2024-03-02T16:47:29.961Z,93097.72
2024-03-02T16:50:00.514Z,93099.81
2024-03-02T16:52:29.488Z,93090.44
2024-03-02T16:55:02.509Z,93101.38
2024-03-02T16:57:33.307Z,93098.41
2024-03-02T17:00:01.912Z,93105.28
2024-03-02T17:02:30.592Z,93106.03
2024-03-02T17:04:58.980Z,93103.06
2024-03-02T17:07:30.379Z,93105.97
2024-03-02T17:09:59.508Z,93101.41
2024-03-02T17:12:27.699Z,93106.41
2024-03-02T17:14:56.100Z,93108.84
2024-03-02T17:17:24.500Z,93118.41
2024-03-02T17:19:52.738Z,93117.28
2024-03-02T17:22:20.986Z,93115.06
2024-03-02T17:24:49.222Z,93121.44
2024-03-02T17:27:17.729Z,93122.66
2024-03-02T17:29:46.667Z,93119.75
2024-03-02T17:32:15.198Z,93131.69
2024-03-02T17:34:43.724Z,93128.25
2024-03-02T17:37:12.287Z,93133.00
2024-03-02T17:39:40.943Z,93131.94
2024-03-02T17:42:09.388Z,93138.78
2024-03-02T17:44:37.832Z,93133.84
2024-03-02T17:47:06.758Z,93126.16
2024-03-02T17:49:35.100Z,93128.81
2024-03-02T17:52:03.543Z,93141.22
2024-03-02T17:54:32.798Z,93136.06
2024-03-02T17:57:01.249Z,93139.28
2024-03-02T17:59:30.279Z,93137.94
2024-03-02T18:01:59.391Z,93140.50
2024-03-02T18:04:28.247Z,93147.13
2024-03-02T18:07:00.255Z,93144.13
2024-03-02T18:09:29.659Z,93141.75
2024-03-02T18:11:57.831Z,93144.13
2024-03-02T18:14:26.271Z,93142.53
2024-03-02T18:16:54.878Z,93143.50
2024-03-02T18:19:23.389Z,93143.50
2024-03-02T18:21:51.996Z,93144.06
2024-03-02T18:24:24.675Z,93147.53
2024-03-02T18:26:53.518Z,93148.25
2024-03-02T18:29:22.661Z,93153.25
2024-03-02T18:31:51.153Z,93154.47
2024-03-02T18:34:19.960Z,93161.47
2024-03-02T18:36:48.540Z,93165.94
2024-03-02T18:39:17.248Z,93160.34
2024-03-02T18:41:45.746Z,93153.34
2024-03-02T18:44:14.648Z,93162.03
2024-03-02T18:46:43.023Z,93165.38
2024-03-02T18:49:12.086Z,93162.00
2024-03-02T18:51:43.242Z,93159.81
2024-03-02T18:54:13.143Z,93167.59
2024-03-02T18:56:41.584Z,93167.53
2024-03-02T18:59:09.958Z,93173.50
2024-03-02T19:01:38.650Z,93176.81
2024-03-02T19:04:07.490Z,93174.72
2024-03-02T19:06:36.177Z,93183.38
2024-03-02T19:09:04.616Z,93179.13
2024-03-02T19:11:33.157Z,93189.97
2024-03-02T19:14:01.802Z,93186.75
2024-03-02T19:16:30.389Z,93182.63
2024-03-02T19:18:58.955Z,93181.25
2024-03-02T19:21:27.557Z,93183.44
2024-03-02T19:23:56.119Z,93182.63
2024-03-02T19:26:25.564Z,93189.06
2024-03-02T19:28:54.178Z,93185.84
2024-03-02T19:31:22.798Z,93177.00
2024-03-02T19:33:51.446Z,93177.72
2024-03-02T19:36:19.845Z,93187.19
2024-03-02T19:38:48.442Z,93175.81
2024-03-02T19:41:18.927Z,93181.47
2024-03-02T19:43:47.570Z,93185.25
2024-03-02T19:46:16.510Z,93180.19
2024-03-02T19:48:45.197Z,93181.69
2024-03-02T19:51:13.952Z,93183.31
2024-03-02T19:53:42.515Z,93180.09
2024-03-02T19:56:18.187Z,93182.31
2024-03-02T19:58:46.890Z,93187.59
2024-03-02T20:01:19.319Z,93194.53
2024-03-02T20:03:51.636Z,93200.63
2024-03-02T20:06:21.532Z,93200.75
2024-03-02T20:08:50.464Z,93195.94
2024-03-02T20:11:19.151Z,93197.88
2024-03-02T20:13:47.534Z,93199.94
2024-03-02T20:16:21.777Z,93201.78
2024-03-02T20:18:50.993Z,93196.81
2024-03-02T20:21:19.566Z,93196.16
2024-03-02T20:23:48.232Z,93193.63
2024-03-02T20:26:18.842Z,93195.78
2024-03-02T20:28:48.467Z,93193.06
2024-03-02T20:31:17.133Z,93200.41
2024-03-02T20:33:45.858Z,93200.53
2024-03-02T20:36:15.827Z,93195.56
2024-03-02T20:38:44.408Z,93195.22
2024-03-02T20:41:20.131Z,93205.56
2024-03-02T20:43:49.005Z,93202.25
2024-03-02T20:46:17.618Z,93209.25
2024-03-02T20:48:48.022Z,93203.03
2024-03-02T20:51:17.000Z,93203.03
2024-03-02T20:53:45.572Z,93208.66
2024-03-02T20:56:14.183Z,93206.84
2024-03-02T20:58:42.822Z,93209.94
2024-03-02T21:01:12.492Z,93208.22
2024-03-02T21:03:41.977Z,93203.72
2024-03-02T21:06:10.383Z,93204.06
2024-03-02T21:08:38.783Z,93208.88
2024-03-02T21:11:07.519Z,93200.47
2024-03-02T21:13:35.961Z,93193.00
2024-03-02T21:16:04.914Z,93198.06
2024-03-02T21:18:33.509Z,93198.63
2024-03-02T21:21:02.464Z,93202.00
2024-03-02T21:23:31.093Z,93208.66
2024-03-02T21:26:02.354Z,93212.59
2024-03-02T21:28:31.427Z,93210.25
2024-03-02T21:30:59.880Z,93208.66
2024-03-02T21:33:28.983Z,93208.53
2024-03-02T21:35:57.459Z,93203.28
2024-03-02T21:38:25.831Z,93207.50
2024-03-02T21:40:54.339Z,93204.88
2024-03-02T21:43:22.973Z,93205.13
2024-03-02T21:45:51.914Z,93206.72
2024-03-02T21:48:20.272Z,93215.47
2024-03-02T21:50:48.708Z,93200.84
2024-03-02T21:53:17.213Z,93201.41
2024-03-02T21:55:45.867Z,93207.88
2024-03-02T21:58:14.064Z,93201.53
2024-03-02T22:00:42.260Z,93202.91
2024-03-02T22:03:10.874Z,93204.50
2024-03-02T22:05:41.169Z,93206.94
2024-03-02T22:08:09.298Z,93203.50
2024-03-02T22:10:37.253Z,93203.81
2024-03-02T22:13:05.448Z,93216.03
2024-03-02T22:15:33.429Z,93216.59
2024-03-02T22:18:04.579Z,93223.75
2024-03-02T22:20:33.067Z,93220.03
2024-03-02T22:23:01.231Z,93208.88
2024-03-02T22:25:29.212Z,93216.81
2024-03-02T22:27:57.538Z,93216.25
2024-03-02T22:30:27.506Z,93222.34
2024-03-02T22:32:58.694Z,93220.66
2024-03-02T22:35:27.074Z,93220.31
2024-03-02T22:37:55.446Z,93221.09
2024-03-02T22:40:26.552Z,93218.22
2024-03-02T22:42:54.812Z,93222.94
2024-03-02T22:45:22.789Z,93224.53
2024-03-02T22:47:52.184Z,93234.13
2024-03-02T22:50:20.310Z,93231.91
2024-03-02T22:52:47.948Z,93232.03
2024-03-02T22:55:16.146Z,93229.63
2024-03-02T22:57:44.100Z,93231.00
2024-03-02T23:00:31.686Z,93208.38
2024-03-02T23:02:59.920Z,93223.66
2024-03-02T23:05:27.917Z,93222.63
2024-03-02T23:07:56.514Z,93224.09
2024-03-02T23:10:24.993Z,93220.66
2024-03-02T23:12:53.015Z,93232.38
2024-03-02T23:15:20.983Z,93221.22
2024-03-02T23:17:49.224Z,93225.94
2024-03-02T23:20:17.216Z,93228.72
2024-03-02T23:22:46.187Z,93235.97
2024-03-02T23:25:15.923Z,93228.25
2024-03-02T23:27:44.330Z,93221.34
2024-03-02T23:30:12.384Z,93228.03
2024-03-02T23:32:40.445Z,93228.03
2024-03-02T23:35:08.790Z,93225.47
2024-03-02T23:37:36.715Z,93229.16
2024-03-02T23:40:05.130Z,93228.81
2024-03-02T23:42:33.662Z,93231.16
2024-03-02T23:45:03.148Z,93237.09
2024-03-02T23:47:31.351Z,93232.16
2024-03-02T23:49:59.475Z,93232.63
2024-03-02T23:52:28.659Z,93226.63
2024-03-02T23:54:56.827Z,93219.50
2024-03-02T23:57:24.874Z,93231.00
2024-03-02T23:59:52.889Z,93231.00
